Time;durP1;ratioP1;P1;durP2;ratioP2;P2;SDS_P1;SDS_P2;PMS_P1;PMS_P2;Temp;Humidity;BMP_temperature;BMP_pressure;BME280_temperature;BME280_humidity;BME280_pressure;Samples;Min_cycle;Max_cycle;Signal;HPM_P1;HPM_P2
2021/07/26 00:01:15;;;;;;;19.47;13.50;;;22.20;1.00;;;;;;5134270;27;20721;-55
2021/07/26 00:03:42;;;;;;;14.67;13.27;;;22.30;1.00;;;;;;5128133;27;20201;-52
2021/07/26 00:06:09;;;;;;;15.43;13.93;;;22.30;1.00;;;;;;5128142;27;20930;-53
2021/07/26 00:08:36;;;;;;;13.97;12.57;;;22.30;1.00;;;;;;5128799;27;20530;-54
2021/07/26 00:11:06;;;;;;;19.40;14.50;;;22.20;1.00;;;;;;5132765;27;20923;-52
2021/07/26 00:13:33;;;;;;;13.90;12.60;;;22.20;1.00;;;;;;5132757;27;20515;-53
2021/07/26 00:15:58;;;;;;;15.17;13.80;;;22.20;1.00;;;;;;5133413;27;20435;-53
2021/07/26 00:18:24;;;;;;;14.87;13.47;;;22.20;1.00;;;;;;5129848;27;20492;-54
2021/07/26 00:20:50;;;;;;;15.63;14.17;;;22.30;1.00;;;;;;5129613;27;20562;-52
2021/07/26 00:23:15;;;;;;;15.23;13.70;;;22.30;1.00;;;;;;5132758;27;20189;-54
2021/07/26 00:25:41;;;;;;;15.87;14.47;;;22.20;1.00;;;;;;5133326;27;20384;-55
2021/07/26 00:28:08;;;;;;;14.70;13.27;;;22.20;1.00;;;;;;5114054;27;20177;-53
2021/07/26 00:30:34;;;;;;;15.90;14.40;;;22.20;1.00;;;;;;5130125;27;20484;-52
2021/07/26 00:33:00;;;;;;;15.30;13.47;;;22.20;1.00;;;;;;5127541;27;20850;-55
2021/07/26 00:35:25;;;;;;;15.40;13.53;;;22.20;1.00;;;;;;5147939;27;20442;-52
2021/07/26 00:37:51;;;;;;;14.33;13.00;;;22.20;1.00;;;;;;5149198;27;20205;-55
2021/07/26 00:40:17;;;;;;;15.67;14.17;;;22.30;1.00;;;;;;5127470;27;20235;-54
2021/07/26 00:42:43;;;;;;;15.43;13.97;;;22.20;1.00;;;;;;5132135;27;20333;-55
2021/07/26 00:45:09;;;;;;;14.70;13.00;;;22.20;1.00;;;;;;5129636;27;21244;-54
2021/07/26 00:47:34;;;;;;;15.13;13.60;;;22.20;1.00;;;;;;5132929;27;20174;-55
2021/07/26 00:50:00;;;;;;;14.10;12.77;;;22.20;1.00;;;;;;5131956;27;20840;-55
2021/07/26 00:52:26;;;;;;;14.97;13.57;;;22.20;1.00;;;;;;5132108;27;20252;-54
2021/07/26 00:54:52;;;;;;;14.87;12.87;;;22.10;1.00;;;;;;5128731;27;20231;-52
2021/07/26 00:57:21;;;;;;;14.57;13.20;;;22.10;1.00;;;;;;5112371;27;20276;-54
2021/07/26 00:59:48;;;;;;;14.63;13.33;;;22.20;1.00;;;;;;5128405;27;20505;-54
2021/07/26 01:02:14;;;;;;;16.23;14.83;;;22.10;1.00;;;;;;5131811;27;20458;-53
2021/07/26 01:04:39;;;;;;;14.97;13.50;;;22.00;1.00;;;;;;5128585;27;21016;-52
2021/07/26 01:07:06;;;;;;;19.97;15.10;;;22.00;1.00;;;;;;5129202;27;20194;-52
2021/07/26 01:09:32;;;;;;;14.13;12.83;;;21.90;1.00;;;;;;5114219;27;20183;-54
2021/07/26 01:11:58;;;;;;;15.23;13.93;;;21.80;1.00;;;;;;5125298;27;21000;-52
2021/07/26 01:14:24;;;;;;;16.07;14.43;;;21.70;1.00;;;;;;5127591;27;20216;-53
2021/07/26 01:16:49;;;;;;;16.17;14.40;;;21.70;1.00;;;;;;5124582;27;20355;-55
2021/07/26 01:19:15;;;;;;;16.00;14.47;;;21.60;1.00;;;;;;5110252;27;20958;-57
2021/07/26 01:21:41;;;;;;;16.10;14.70;;;21.60;1.00;;;;;;5117720;27;20220;-53
2021/07/26 01:24:07;;;;;;;16.33;14.60;;;21.60;1.00;;;;;;5129968;27;20435;-52
2021/07/26 01:26:33;;;;;;;15.30;13.93;;;21.60;1.00;;;;;;5128353;27;20182;-53
2021/07/26 01:29:02;;;;;;;15.43;14.03;;;21.60;1.00;;;;;;5113869;27;20196;-54
2021/07/26 01:31:29;;;;;;;16.03;14.63;;;21.50;1.00;;;;;;5128817;27;20846;-52
2021/07/26 01:33:55;;;;;;;16.10;14.60;;;21.50;1.00;;;;;;5130087;27;20521;-54
2021/07/26 01:36:22;;;;;;;15.63;14.23;;;21.50;1.00;;;;;;5122412;27;20542;-54
2021/07/26 01:38:51;;;;;;;15.83;14.40;;;21.50;1.00;;;;;;5127356;27;20491;-54
2021/07/26 01:41:21;;;;;;;15.77;14.13;;;21.40;1.00;;;;;;5131325;27;20456;-55
2021/07/26 01:44:06;;;;;;;15.10;13.70;;;21.40;1.00;;;;;;5132724;27;20928;-53
2021/07/26 01:46:54;;;;;;;16.63;13.40;;;21.40;1.00;;;;;;5130641;27;20421;-52
2021/07/26 01:49:43;;;;;;;14.10;12.80;;;21.30;1.00;;;;;;5106173;27;20439;-56
2021/07/26 01:52:10;;;;;;;15.33;13.93;;;21.30;1.00;;;;;;5129638;27;20467;-51
2021/07/26 01:54:35;;;;;;;14.20;12.80;;;21.20;1.00;;;;;;5127402;27;20458;-56
2021/07/26 01:57:02;;;;;;;14.70;12.90;;;21.20;1.00;;;;;;5130327;27;20779;-54
2021/07/26 01:59:28;;;;;;;14.13;12.70;;;21.20;1.00;;;;;;5131851;27;20196;-52
2021/07/26 02:01:54;;;;;;;13.23;11.90;;;21.30;1.00;;;;;;5126421;27;20515;-56
2021/07/26 02:04:19;;;;;;;16.17;13.47;;;21.20;1.00;;;;;;5126173;27;20430;-55
2021/07/26 02:06:45;;;;;;;13.70;12.30;;;21.20;1.00;;;;;;5129220;27;20273;-55
2021/07/26 02:09:10;;;;;;;16.37;14.67;;;21.10;1.00;;;;;;5129623;27;20180;-55
2021/07/26 02:11:36;;;;;;;14.50;13.20;;;21.10;1.00;;;;;;5131270;27;20193;-54
2021/07/26 02:14:09;;;;;;;14.97;13.37;;;21.00;1.00;;;;;;5132078;27;20185;-54
2021/07/26 02:16:35;;;;;;;15.20;13.70;;;21.00;1.00;;;;;;5130353;27;20192;-53
2021/07/26 02:19:00;;;;;;;17.60;13.90;;;20.90;1.00;;;;;;5131851;27;20443;-53
2021/07/26 02:21:26;;;;;;;15.23;13.70;;;21.30;1.00;;;;;;5124804;27;20467;-54
2021/07/26 02:23:51;;;;;;;14.30;12.80;;;21.00;1.00;;;;;;5130696;27;20402;-56
2021/07/26 02:26:17;;;;;;;14.33;13.03;;;20.90;1.00;;;;;;5128777;27;20644;-55
2021/07/26 02:28:42;;;;;;;15.17;13.80;;;20.80;1.00;;;;;;5129081;27;20189;-53
2021/07/26 02:31:08;;;;;;;15.63;13.80;;;20.90;1.00;;;;;;5130717;27;20231;-55
2021/07/26 02:33:33;;;;;;;14.60;12.43;;;20.90;1.00;;;;;;5112591;27;20276;-54
2021/07/26 02:35:59;;;;;;;15.30;13.73;;;20.90;1.00;;;;;;5131239;27;20190;-56
2021/07/26 02:38:24;;;;;;;14.83;12.87;;;20.80;1.00;;;;;;5130099;27;20189;-56
2021/07/26 02:40:50;;;;;;;17.70;14.27;;;20.80;1.00;;;;;;5130093;27;20600;-54
2021/07/26 02:43:15;;;;;;;15.30;13.90;;;20.80;1.00;;;;;;5127599;27;20234;-57
2021/07/26 02:45:42;;;;;;;14.90;13.03;;;20.80;1.00;;;;;;5130934;27;20184;-54
2021/07/26 02:48:08;;;;;;;14.83;13.23;;;20.70;1.00;;;;;;5131460;27;20232;-54
2021/07/26 02:50:34;;;;;;;16.93;14.40;;;20.70;1.00;;;;;;5123658;27;20830;-53
2021/07/26 02:53:00;;;;;;;15.27;13.57;;;20.60;1.00;;;;;;5129137;27;20487;-56
2021/07/26 02:55:27;;;;;;;15.17;13.70;;;20.60;3.80;;;;;;5129706;27;20265;-54
2021/07/26 02:57:53;;;;;;;15.77;14.27;;;20.60;9.30;;;;;;5128589;27;21013;-55
2021/07/26 03:00:19;;;;;;;16.03;13.57;;;20.60;14.40;;;;;;5129760;27;20795;-52
2021/07/26 03:02:45;;;;;;;17.60;15.07;;;20.60;18.00;;;;;;5129351;27;20696;-53
2021/07/26 03:05:10;;;;;;;16.57;13.93;;;20.60;20.30;;;;;;5130755;27;20174;-55
2021/07/26 03:07:36;;;;;;;16.87;15.10;;;20.60;18.20;;;;;;5128830;27;20252;-55
2021/07/26 03:10:02;;;;;;;18.57;15.00;;;20.50;22.90;;;;;;5127905;27;20284;-55
2021/07/26 03:12:27;;;;;;;17.17;15.47;;;20.50;22.20;;;;;;5129882;27;20648;-55
2021/07/26 03:14:53;;;;;;;17.67;15.40;;;20.50;22.50;;;;;;5127787;27;20213;-52
2021/07/26 03:17:18;;;;;;;18.40;16.20;;;20.50;21.70;;;;;;5126096;27;20198;-53
2021/07/26 03:19:44;;;;;;;18.27;15.30;;;20.50;22.70;;;;;;5127032;27;20181;-55
2021/07/26 03:22:42;;;;;;;16.67;15.13;;;20.50;22.50;;;;;;5115879;27;20284;-53
2021/07/26 03:25:08;;;;;;;15.10;13.67;;;20.50;20.30;;;;;;5125909;27;20181;-54
2021/07/26 03:27:33;;;;;;;20.80;15.37;;;20.50;21.30;;;;;;5130835;27;20423;-54
2021/07/26 03:29:59;;;;;;;16.50;14.83;;;20.50;22.50;;;;;;5129657;27;20437;-53
2021/07/26 03:32:25;;;;;;;18.10;15.80;;;20.40;20.70;;;;;;5112411;27;20178;-56
2021/07/26 03:34:50;;;;;;;18.83;16.30;;;20.40;19.00;;;;;;5108657;27;20547;-53
2021/07/26 03:37:15;;;;;;;17.07;15.30;;;20.50;16.30;;;;;;5106725;27;20228;-55
2021/07/26 03:39:41;;;;;;;17.83;16.07;;;20.50;17.70;;;;;;5128745;27;20193;-55
2021/07/26 03:42:07;;;;;;;18.20;15.27;;;20.50;15.20;;;;;;5129446;27;20246;-54
2021/07/26 03:44:32;;;;;;;16.97;15.40;;;20.50;17.00;;;;;;5130429;27;20181;-54
2021/07/26 03:46:59;;;;;;;18.40;15.80;;;20.50;15.00;;;;;;5129855;27;20438;-54
2021/07/26 03:49:25;;;;;;;16.60;14.70;;;20.60;14.50;;;;;;5129501;27;20230;-55
2021/07/26 03:51:50;;;;;;;20.43;16.53;;;20.50;14.20;;;;;;5124017;27;20835;-55
2021/07/26 03:54:16;;;;;;;17.97;16.17;;;20.60;12.10;;;;;;5127321;27;20443;-55
2021/07/26 03:56:41;;;;;;;17.90;16.20;;;20.60;10.30;;;;;;5125667;27;20187;-54
2021/07/26 03:59:07;;;;;;;16.30;14.53;;;20.60;10.50;;;;;;5130625;27;20189;-52
2021/07/26 04:01:32;;;;;;;20.17;17.00;;;20.60;10.50;;;;;;5126258;27;20558;-54
2021/07/26 04:03:58;;;;;;;16.90;15.40;;;20.60;8.40;;;;;;5132989;27;20577;-55
2021/07/26 04:06:24;;;;;;;16.67;15.13;;;20.70;6.00;;;;;;5130101;27;20264;-55
2021/07/26 04:08:51;;;;;;;18.23;16.33;;;20.80;1.00;;;;;;5133844;27;20177;-54
2021/07/26 04:11:22;;;;;;;17.97;15.10;;;20.80;1.00;;;;;;5129998;27;20197;-54
2021/07/26 04:14:01;;;;;;;15.80;14.30;;;20.90;1.00;;;;;;5134238;27;20525;-53
2021/07/26 04:16:26;;;;;;;16.00;14.57;;;21.10;1.00;;;;;;5123015;27;20447;-55
2021/07/26 04:18:52;;;;;;;16.03;14.17;;;20.70;1.00;;;;;;5131418;27;20873;-54
2021/07/26 04:21:18;;;;;;;14.73;13.23;;;20.70;1.00;;;;;;5124068;27;20269;-56
2021/07/26 04:23:44;;;;;;;16.83;15.10;;;20.80;1.00;;;;;;5129401;27;20918;-50
2021/07/26 04:26:10;;;;;;;16.43;14.10;;;20.90;1.00;;;;;;5133050;27;20449;-54
2021/07/26 04:28:36;;;;;;;15.40;14.10;;;20.90;1.00;;;;;;5133574;27;20178;-55
2021/07/26 04:31:02;;;;;;;15.33;13.93;;;21.00;1.00;;;;;;5132133;27;20185;-54
2021/07/26 04:33:27;;;;;;;15.90;14.50;;;21.00;1.00;;;;;;5133454;27;20439;-55
2021/07/26 04:35:53;;;;;;;15.77;13.87;;;21.10;1.00;;;;;;5127384;27;20448;-54
2021/07/26 04:38:18;;;;;;;14.90;13.40;;;21.10;1.00;;;;;;5128835;27;20650;-53
2021/07/26 04:40:44;;;;;;;14.90;13.50;;;21.10;1.00;;;;;;5152813;27;20747;-55
2021/07/26 04:43:10;;;;;;;14.90;13.50;;;21.20;1.00;;;;;;5135131;27;20248;-55
2021/07/26 04:45:35;;;;;;;15.70;14.17;;;21.00;1.00;;;;;;5128643;27;20194;-56
2021/07/26 04:48:01;;;;;;;15.50;13.90;;;21.30;1.00;;;;;;5133786;27;20200;-54
2021/07/26 04:50:26;;;;;;;15.23;13.63;;;21.40;1.00;;;;;;5131153;27;20186;-55
2021/07/26 04:52:52;;;;;;;15.97;14.47;;;21.40;1.00;;;;;;5084588;28;20229;-55
2021/07/26 04:55:17;;;;;;;15.80;14.33;;;21.50;1.00;;;;;;5090448;28;20236;-54
2021/07/26 04:57:43;;;;;;;14.97;13.57;;;21.60;1.00;;;;;;5090599;28;20214;-53
2021/07/26 05:00:09;;;;;;;15.60;14.17;;;21.70;1.00;;;;;;5091963;28;20193;-55
2021/07/26 05:02:35;;;;;;;15.50;14.00;;;;;;;;;;5090755;28;20234;-53
2021/07/26 05:05:03;;;;;;;15.47;13.97;;;22.00;1.00;;;;;;5085570;28;20472;-55
2021/07/26 05:07:29;;;;;;;15.77;14.13;;;22.10;1.00;;;;;;5088757;28;20471;-53
2021/07/26 05:09:55;;;;;;;15.33;13.90;;;22.20;1.00;;;;;;5091496;28;20515;-54
2021/07/26 05:12:20;;;;;;;14.00;12.67;;;22.30;1.00;;;;;;5090729;28;20198;-56
2021/07/26 05:14:49;;;;;;;14.77;13.50;;;19.30;1.00;;;;;;5088407;28;20207;-53
2021/07/26 05:17:26;;;;;;;14.87;13.57;;;22.30;1.00;;;;;;5092190;28;20186;-54
2021/07/26 05:19:52;;;;;;;14.53;12.77;;;22.30;1.00;;;;;;5089737;28;20550;-54
2021/07/26 05:22:21;;;;;;;14.77;13.37;;;22.30;1.00;;;;;;5076633;28;20500;-54
2021/07/26 05:24:47;;;;;;;13.13;12.03;;;22.30;1.00;;;;;;5085536;28;20568;-56
2021/07/26 05:27:13;;;;;;;14.20;12.67;;;22.50;1.00;;;;;;5089425;28;20930;-52
2021/07/26 05:29:39;;;;;;;28.07;15.57;;;22.60;1.00;;;;;;5090186;28;20440;-55
2021/07/26 05:32:08;;;;;;;18.57;13.47;;;22.70;1.00;;;;;;5090481;28;20440;-53
2021/07/26 05:34:34;;;;;;;17.83;13.30;;;23.00;1.00;;;;;;5087753;28;20270;-54
2021/07/26 05:37:00;;;;;;;15.13;13.53;;;23.10;1.00;;;;;;5089617;28;20988;-53
2021/07/26 05:39:26;;;;;;;17.40;13.47;;;23.40;1.00;;;;;;5090936;28;20194;-51
2021/07/26 05:41:59;;;;;;;16.03;13.33;;;23.60;1.00;;;;;;5090048;28;20209;-52
2021/07/26 05:44:26;;;;;;;15.53;13.30;;;23.80;1.00;;;;;;5086993;28;20459;-55
2021/07/26 05:46:52;;;;;;;15.77;14.07;;;24.00;1.00;;;;;;5089376;28;20448;-55
2021/07/26 05:49:17;;;;;;;16.07;12.73;;;24.10;1.00;;;;;;5087636;28;20445;-52
2021/07/26 05:51:43;;;;;;;23.60;14.10;;;24.30;1.00;;;;;;5103587;27;20824;-54
2021/07/26 05:54:09;;;;;;;21.47;12.90;;;24.40;1.00;;;;;;5129714;27;20393;-53
2021/07/26 05:56:40;;;;;;;17.00;15.00;;;24.40;1.00;;;;;;5131496;27;20182;-55
2021/07/26 05:59:06;;;;;;;13.10;11.90;;;24.60;1.00;;;;;;5128805;27;20272;-54
2021/07/26 06:01:47;;;;;;;16.13;14.43;;;24.80;1.00;;;;;;5127467;27;20904;-53
2021/07/26 06:04:23;;;;;;;12.97;11.67;;;24.90;1.00;;;;;;5132289;27;20180;-53
2021/07/26 06:06:57;;;;;;;12.67;11.60;;;24.80;1.00;;;;;;5111274;27;20464;-53
2021/07/26 06:09:23;;;;;;;13.20;12.00;;;24.80;1.00;;;;;;5130014;27;20514;-54
2021/07/26 06:11:49;;;;;;;14.10;12.80;;;24.80;1.00;;;;;;5131055;27;20493;-54
2021/07/26 06:14:15;;;;;;;12.20;11.20;;;25.10;1.00;;;;;;5113429;27;20291;-55
2021/07/26 06:16:42;;;;;;;17.03;12.40;;;25.20;1.00;;;;;;5129279;27;20990;-54
2021/07/26 06:19:11;;;;;;;13.37;11.67;;;25.50;1.00;;;;;;5129646;27;20635;-52
2021/07/26 06:21:47;;;;;;;13.47;10.30;;;25.70;1.00;;;;;;5129898;27;20552;-54
2021/07/26 06:24:14;;;;;;;12.73;11.50;;;25.60;1.00;;;;;;5111878;27;20435;-55
2021/07/26 06:26:41;;;;;;;12.00;10.80;;;25.50;1.00;;;;;;5129596;27;20788;-53
2021/07/26 06:29:06;;;;;;;13.07;11.77;;;25.50;1.00;;;;;;5131481;27;20443;-55
2021/07/26 06:31:32;;;;;;;12.93;11.63;;;25.60;1.00;;;;;;5112412;27;20442;-55
2021/07/26 06:34:02;;;;;;;14.33;12.80;;;25.60;1.00;;;;;;5130182;27;20268;-54
2021/07/26 06:36:28;;;;;;;12.90;11.60;;;25.70;1.00;;;;;;5135079;27;20518;-53
2021/07/26 06:38:54;;;;;;;13.13;11.83;;;25.60;1.00;;;;;;5128875;27;20905;-52
2021/07/26 06:41:21;;;;;;;14.40;11.97;;;25.50;1.00;;;;;;5131756;27;20496;-54
2021/07/26 06:43:47;;;;;;;14.27;12.20;;;25.50;1.00;;;;;;5130451;27;20413;-54
2021/07/26 06:46:13;;;;;;;13.87;12.43;;;25.50;1.00;;;;;;5130852;27;20461;-54
2021/07/26 06:48:38;;;;;;;17.80;11.87;;;25.50;1.00;;;;;;5130407;27;20406;-54
2021/07/26 06:51:04;;;;;;;16.67;12.17;;;25.50;1.00;;;;;;5111189;27;20211;-52
2021/07/26 06:53:32;;;;;;;13.57;12.27;;;25.60;1.00;;;;;;5129362;27;20219;-53
2021/07/26 06:56:03;;;;;;;13.13;11.87;;;25.80;1.00;;;;;;5111606;27;20476;-55
2021/07/26 06:58:28;;;;;;;12.63;11.30;;;25.70;1.00;;;;;;5129679;27;20439;-53
2021/07/26 07:00:54;;;;;;;13.43;12.13;;;25.70;1.00;;;;;;5131472;27;20473;-53
2021/07/26 07:03:19;;;;;;;14.20;11.80;;;25.70;1.00;;;;;;5131491;27;20643;-54
2021/07/26 07:05:45;;;;;;;14.87;13.37;;;25.80;1.00;;;;;;5130519;27;20664;-55
2021/07/26 07:08:10;;;;;;;13.60;12.40;;;25.80;1.00;;;;;;5131301;27;20181;-54
2021/07/26 07:10:36;;;;;;;16.47;11.40;;;25.70;1.00;;;;;;5110757;27;20234;-54
2021/07/26 07:13:01;;;;;;;12.50;11.40;;;25.50;1.00;;;;;;5130819;27;20554;-54
2021/07/26 07:15:28;;;;;;;13.40;12.00;;;25.40;1.00;;;;;;5131313;27;20177;-53
2021/07/26 07:17:53;;;;;;;13.70;12.30;;;25.30;1.00;;;;;;5132754;27;20174;-55
2021/07/26 07:20:20;;;;;;;14.10;12.80;;;25.60;1.00;;;;;;5132358;27;20458;-53
2021/07/26 07:22:45;;;;;;;12.97;11.77;;;25.80;1.00;;;;;;5131016;27;20193;-54
2021/07/26 07:25:11;;;;;;;13.27;12.00;;;26.00;1.00;;;;;;5110120;27;20480;-54
2021/07/26 07:27:37;;;;;;;12.60;11.30;;;26.30;1.00;;;;;;5127248;27;20174;-56
2021/07/26 07:30:03;;;;;;;12.00;10.80;;;26.50;1.00;;;;;;5127976;27;20853;-53
2021/07/26 07:32:29;;;;;;;12.90;11.60;;;26.60;1.00;;;;;;5129235;27;20214;-53
2021/07/26 07:34:54;;;;;;;12.87;11.67;;;26.80;1.00;;;;;;5109969;27;20437;-53
2021/07/26 07:37:20;;;;;;;12.87;11.67;;;26.90;1.00;;;;;;5131493;27;20212;-54
2021/07/26 07:39:46;;;;;;;12.43;11.20;;;27.10;1.00;;;;;;5115662;27;20646;-53
2021/07/26 07:42:11;;;;;;;12.60;11.27;;;27.20;1.00;;;;;;5133686;27;20440;-54
2021/07/26 07:44:37;;;;;;;12.67;11.53;;;27.30;1.00;;;;;;5134010;27;20184;-54
2021/07/26 07:47:03;;;;;;;11.17;10.10;;;27.40;1.00;;;;;;5152303;27;20191;-54
2021/07/26 07:49:29;;;;;;;11.20;10.20;;;27.40;1.00;;;;;;5153657;27;20622;-55
2021/07/26 07:51:55;;;;;;;10.80;9.70;;;27.50;1.00;;;;;;5132212;27;20477;-53
2021/07/26 07:54:22;;;;;;;16.60;11.03;;;27.70;1.00;;;;;;5116348;27;20633;-55
2021/07/26 07:56:52;;;;;;;12.30;11.00;;;27.60;1.00;;;;;;5113046;27;20420;-54
2021/07/26 07:59:18;;;;;;;11.90;10.40;;;27.70;1.00;;;;;;5134495;27;20408;-53
2021/07/26 08:01:44;;;;;;;16.20;10.73;;;27.90;1.00;;;;;;5133641;27;20494;-53
2021/07/26 08:04:09;;;;;;;13.73;10.00;;;28.20;1.00;;;;;;5115933;27;20485;-55
2021/07/26 08:06:40;;;;;;;10.87;9.77;;;27.80;1.00;;;;;;5131862;27;20169;-55
2021/07/26 08:09:06;;;;;;;10.47;9.47;;;28.40;1.00;;;;;;5133367;27;20181;-55
2021/07/26 08:11:31;;;;;;;11.57;10.47;;;28.60;1.00;;;;;;5134303;27;20900;-54
2021/07/26 08:13:57;;;;;;;11.70;9.70;;;28.60;1.00;;;;;;5125310;27;20181;-54
2021/07/26 08:16:23;;;;;;;11.97;10.30;;;28.80;1.00;;;;;;5128930;27;20204;-52
2021/07/26 08:18:49;;;;;;;11.60;10.47;;;29.00;1.00;;;;;;5134161;27;20204;-53
2021/07/26 08:21:14;;;;;;;10.27;9.33;;;29.10;1.00;;;;;;5114331;27;20429;-53
2021/07/26 08:23:40;;;;;;;12.93;10.70;;;29.00;1.00;;;;;;5133879;27;20196;-53
2021/07/26 08:26:06;;;;;;;10.30;9.43;;;28.90;1.00;;;;;;5132223;27;20196;-54
2021/07/26 08:28:31;;;;;;;12.97;10.00;;;28.80;1.00;;;;;;5133223;27;20642;-55
2021/07/26 08:30:57;;;;;;;12.53;10.17;;;28.90;1.00;;;;;;5133944;27;20177;-53
2021/07/26 08:33:22;;;;;;;10.53;9.63;;;28.80;1.00;;;;;;5133021;27;20215;-54
2021/07/26 08:35:48;;;;;;;15.67;11.10;;;28.80;1.00;;;;;;5130425;27;20243;-52
2021/07/26 08:38:13;;;;;;;10.70;9.60;;;28.80;1.00;;;;;;5133473;27;20189;-52
2021/07/26 08:40:39;;;;;;;10.50;9.47;;;28.80;1.00;;;;;;5108578;27;20184;-55
2021/07/26 08:43:08;;;;;;;9.90;8.97;;;28.90;1.00;;;;;;5129873;27;20173;-55
2021/07/26 08:45:35;;;;;;;10.47;9.50;;;29.10;1.00;;;;;;5132526;27;20561;-54
2021/07/26 08:48:07;;;;;;;10.37;9.53;;;29.30;1.00;;;;;;5119510;27;20409;-53
2021/07/26 08:50:34;;;;;;;10.47;9.33;;;29.60;1.00;;;;;;5115988;27;20813;-53
2021/07/26 08:53:06;;;;;;;9.67;8.80;;;29.90;1.00;;;;;;5131083;27;20966;-54
2021/07/26 08:55:34;;;;;;;11.33;9.23;;;30.20;1.00;;;;;;5128968;27;20481;-53
2021/07/26 08:58:02;;;;;;;11.27;8.30;;;30.20;1.00;;;;;;5132836;27;20906;-55
2021/07/26 09:00:28;;;;;;;9.53;8.73;;;30.10;1.00;;;;;;5133227;27;20780;-53
2021/07/26 09:02:54;;;;;;;9.90;9.10;;;30.20;1.00;;;;;;5133156;27;20470;-52
2021/07/26 09:05:20;;;;;;;12.73;8.47;;;30.30;1.00;;;;;;5141081;27;20181;-54
2021/07/26 09:07:48;;;;;;;9.40;8.37;;;30.50;1.00;;;;;;5154358;27;20882;-55
2021/07/26 09:10:24;;;;;;;8.87;7.97;;;30.70;1.00;;;;;;5154015;27;20769;-55
2021/07/26 09:12:52;;;;;;;8.83;8.00;;;30.80;1.00;;;;;;5145757;27;20409;-54
2021/07/26 09:15:27;;;;;;;8.70;7.80;;;30.60;1.00;;;;;;5133334;27;20438;-55
2021/07/26 09:17:53;;;;;;;9.17;8.40;;;30.60;1.00;;;;;;5109703;27;20477;-55
2021/07/26 09:20:20;;;;;;;9.00;8.20;;;30.40;1.00;;;;;;5133083;27;20974;-54
2021/07/26 09:22:47;;;;;;;8.80;8.00;;;30.40;1.00;;;;;;5143465;27;20461;-55
2021/07/26 09:25:20;;;;;;;8.63;7.83;;;30.30;1.00;;;;;;5101162;27;20452;-54
2021/07/26 09:28:09;;;;;;;9.17;8.27;;;30.20;1.00;;;;;;5129986;27;20431;-55
2021/07/26 09:30:39;;;;;;;11.50;8.30;;;30.60;1.00;;;;;;5137158;27;20487;-54
2021/07/26 09:33:14;;;;;;;9.73;7.40;;;30.80;1.00;;;;;;5142437;27;20413;-54
2021/07/26 09:35:40;;;;;;;8.80;7.10;;;31.00;1.00;;;;;;5153278;27;20838;-57
2021/07/26 09:38:05;;;;;;;8.27;7.40;;;31.30;1.00;;;;;;5143744;27;20466;-55
2021/07/26 09:40:33;;;;;;;8.40;7.60;;;31.40;1.00;;;;;;5132641;27;20208;-54
2021/07/26 09:43:16;;;;;;;9.10;7.57;;;31.30;1.00;;;;;;5132156;27;20318;-54
2021/07/26 09:45:42;;;;;;;10.83;7.40;;;31.10;1.00;;;;;;5128674;27;20845;-54
2021/07/26 09:48:14;;;;;;;7.90;7.30;;;30.70;1.00;;;;;;5152823;27;20465;-54
2021/07/26 09:50:45;;;;;;;7.83;7.03;;;30.40;1.00;;;;;;5153095;27;20175;-54
2021/07/26 09:53:17;;;;;;;8.20;7.43;;;30.40;1.00;;;;;;5153044;27;20930;-54
2021/07/26 09:55:45;;;;;;;8.20;7.50;;;30.50;1.00;;;;;;5153025;27;20422;-55
2021/07/26 09:58:12;;;;;;;8.30;7.50;;;30.40;1.00;;;;;;5132349;27;20438;-55
2021/07/26 10:00:42;;;;;;;7.83;6.80;;;30.50;1.00;;;;;;5131273;27;20886;-55
2021/07/26 10:03:10;;;;;;;7.40;6.73;;;30.70;1.00;;;;;;5131746;27;20753;-55
2021/07/26 10:05:37;;;;;;;7.60;7.00;;;30.70;1.00;;;;;;5132664;27;20531;-54
2021/07/26 10:08:04;;;;;;;7.80;7.20;;;31.00;1.00;;;;;;5131732;27;20453;-55
2021/07/26 10:10:34;;;;;;;7.70;7.00;;;31.20;1.00;;;;;;5131826;27;20438;-55
2021/07/26 10:13:00;;;;;;;7.30;6.70;;;31.40;1.00;;;;;;5125674;27;20440;-55
2021/07/26 10:15:28;;;;;;;6.10;5.60;;;31.80;1.00;;;;;;5113573;27;20439;-55
2021/07/26 10:17:54;;;;;;;7.30;6.60;;;32.20;1.00;;;;;;5131764;27;20804;-54
2021/07/26 10:20:41;;;;;;;7.40;6.70;;;32.30;1.00;;;;;;5131594;27;20447;-55
2021/07/26 10:23:21;;;;;;;7.27;6.47;;;32.40;1.00;;;;;;5130328;27;20665;-56
2021/07/26 10:25:54;;;;;;;6.23;5.73;;;32.50;1.00;;;;;;5131865;27;20594;-55
2021/07/26 10:28:25;;;;;;;7.10;6.30;;;32.30;1.00;;;;;;5131915;27;20923;-55
2021/07/26 10:30:50;;;;;;;6.30;5.80;;;32.00;1.00;;;;;;5131853;27;20490;-55
2021/07/26 10:33:16;;;;;;;6.77;6.17;;;32.00;1.00;;;;;;5131202;27;20802;-56
2021/07/26 10:35:50;;;;;;;6.70;6.10;;;31.90;1.00;;;;;;5131768;27;20265;-55
2021/07/26 10:38:41;;;;;;;6.70;6.10;;;31.80;1.00;;;;;;5131076;27;20413;-55
2021/07/26 10:41:07;;;;;;;6.70;6.20;;;31.40;1.00;;;;;;5131053;27;20425;-54
2021/07/26 10:44:00;;;;;;;6.87;6.27;;;31.40;1.00;;;;;;5124850;27;20773;-55
2021/07/26 10:46:26;;;;;;;7.03;6.50;;;31.80;1.00;;;;;;5131277;27;20181;-56
2021/07/26 10:48:52;;;;;;;6.47;5.87;;;32.00;1.00;;;;;;5128008;27;20953;-55
2021/07/26 10:51:36;;;;;;;7.20;6.40;;;32.10;1.00;;;;;;5129587;27;20225;-54
2021/07/26 10:54:02;;;;;;;7.07;6.37;;;32.00;1.00;;;;;;5131536;27;20977;-56
2021/07/26 10:56:30;;;;;;;7.03;6.43;;;32.10;1.00;;;;;;5130813;27;20435;-55
2021/07/26 10:59:00;;;;;;;8.80;5.87;;;32.20;1.00;;;;;;5131604;27;20951;-56
2021/07/26 11:01:26;;;;;;;6.57;6.07;;;32.00;1.00;;;;;;5131295;27;20502;-55
2021/07/26 11:03:53;;;;;;;5.87;5.33;;;31.80;1.00;;;;;;5131320;27;20431;-54
2021/07/26 11:06:41;;;;;;;6.43;5.83;;;31.90;1.00;;;;;;5130867;27;20317;-54
2021/07/26 11:09:21;;;;;;;6.20;5.70;;;32.20;1.00;;;;;;5131220;27;20413;-55
2021/07/26 11:11:52;;;;;;;6.47;5.97;;;32.20;1.00;;;;;;5132133;27;20413;-56
2021/07/26 11:14:19;;;;;;;6.40;5.93;;;31.90;1.00;;;;;;5116875;27;20466;-56
2021/07/26 11:16:51;;;;;;;6.23;5.73;;;31.90;1.00;;;;;;5135280;27;20439;-56
2021/07/26 11:19:33;;;;;;;6.30;5.80;;;32.10;1.00;;;;;;5133671;27;20413;-56
2021/07/26 11:21:59;;;;;;;7.43;6.73;;;32.20;1.00;;;;;;5135344;27;20470;-54
2021/07/26 11:24:43;;;;;;;6.40;5.90;;;32.60;1.00;;;;;;5135285;27;20406;-56
2021/07/26 11:27:10;;;;;;;6.97;5.73;;;33.00;1.00;;;;;;5134859;27;20786;-54
2021/07/26 11:29:36;;;;;;;7.73;7.00;;;33.10;1.00;;;;;;5135045;27;20485;-55
2021/07/26 11:32:02;;;;;;;5.93;5.23;;;32.90;1.00;;;;;;5135076;27;20459;-54
2021/07/26 11:34:29;;;;;;;6.27;5.77;;;32.50;1.00;;;;;;5135172;27;20192;-55
2021/07/26 11:37:04;;;;;;;6.10;5.60;;;32.40;1.00;;;;;;5135086;27;20223;-55
2021/07/26 11:40:10;;;;;;;6.67;6.07;;;32.60;1.00;;;;;;5135036;27;20927;-57
2021/07/26 11:42:40;;;;;;;6.30;5.80;;;32.40;1.00;;;;;;5014473;28;20509;-55
2021/07/26 11:45:10;;;;;;;6.50;5.90;;;32.20;1.00;;;;;;5014921;28;20559;-56
2021/07/26 11:47:43;;;;;;;6.00;5.50;;;31.90;1.00;;;;;;5076982;27;20409;-55
2021/07/26 11:50:14;;;;;;;6.57;5.97;;;31.60;1.00;;;;;;5134963;27;20414;-56
2021/07/26 11:52:52;;;;;;;7.47;6.80;;;31.40;1.00;;;;;;5134241;27;20883;-54
2021/07/26 11:55:18;;;;;;;6.80;5.83;;;31.20;1.00;;;;;;5134794;27;20465;-55
2021/07/26 11:57:57;;;;;;;6.30;5.70;;;31.70;1.00;;;;;;5133365;27;20477;-55
2021/07/26 12:00:27;;;;;;;6.03;5.53;;;31.90;1.00;;;;;;5130021;27;20191;-55
2021/07/26 12:02:53;;;;;;;6.83;5.63;;;31.70;1.00;;;;;;5115832;27;20547;-55
2021/07/26 12:05:30;;;;;;;6.03;5.50;;;31.40;1.00;;;;;;5134485;27;20488;-54
2021/07/26 12:07:57;;;;;;;5.37;4.97;;;31.50;1.00;;;;;;5135862;27;20626;-54
2021/07/26 12:10:33;;;;;;;6.40;5.80;;;31.60;1.00;;;;;;5127541;27;20784;-55
2021/07/26 12:13:17;;;;;;;5.87;5.37;;;31.90;1.00;;;;;;5115461;27;20872;-54
2021/07/26 12:15:44;;;;;;;6.13;5.10;;;31.90;1.00;;;;;;5130278;27;20413;-55
2021/07/26 12:18:15;;;;;;;5.40;4.90;;;32.10;1.00;;;;;;5133920;27;20431;-55
2021/07/26 12:20:42;;;;;;;4.67;4.27;;;32.20;1.00;;;;;;5134135;27;20417;-55
2021/07/26 12:23:17;;;;;;;4.70;4.20;;;32.20;1.00;;;;;;5152483;27;20504;-55
2021/07/26 12:25:48;;;;;;;4.17;3.87;;;32.20;1.00;;;;;;5154723;27;20436;-55
2021/07/26 12:28:15;;;;;;;7.87;4.67;;;32.10;1.00;;;;;;5154748;27;20401;-55
2021/07/26 12:30:43;;;;;;;4.60;4.20;;;32.20;1.00;;;;;;5154753;27;20416;-55
2021/07/26 12:33:11;;;;;;;5.40;4.53;;;32.10;1.00;;;;;;5143375;27;20462;-55
2021/07/26 12:35:37;;;;;;;5.10;4.70;;;32.00;1.00;;;;;;5129934;27;20760;-55
2021/07/26 12:38:16;;;;;;;5.37;4.87;;;32.30;1.00;;;;;;5133604;27;20412;-55
2021/07/26 12:40:44;;;;;;;4.40;4.10;;;32.50;1.00;;;;;;5133657;27;20261;-54
2021/07/26 12:43:19;;;;;;;4.53;4.13;;;32.70;1.00;;;;;;5133555;27;20435;-56
2021/07/26 12:46:02;;;;;;;4.70;4.30;;;32.60;1.00;;;;;;5133687;27;20430;-55
2021/07/26 12:48:29;;;;;;;5.00;4.60;;;32.50;1.00;;;;;;5115118;27;20441;-55